createdAt,value
2023-01-26T00:01:17.623Z,23.90
2023-01-26T00:03:47.960Z,23.80
2023-01-26T00:06:16.744Z,24.10
2023-01-26T04:24:15.651Z,42.70
2023-01-26T04:26:44.853Z,42.00
2023-01-26T04:29:16.441Z,43.40
2023-01-26T04:31:48.135Z,44.20
2023-01-26T04:34:18.858Z,45.00
2023-01-26T04:36:46.488Z,43.80
2023-01-26T04:39:16.135Z,41.70
2023-01-26T04:41:46.740Z,38.40
2023-01-26T04:44:16.286Z,34.00
2023-01-26T04:46:43.594Z,33.00
2023-01-26T04:49:14.070Z,33.60
2023-01-26T04:51:40.829Z,33.00
2023-01-26T04:54:08.841Z,33.60
2023-01-26T04:56:39.360Z,33.20
2023-01-26T04:59:06.582Z,34.00
2023-01-26T05:01:34.267Z,30.70
2023-01-26T05:04:03.127Z,32.10
2023-01-26T05:06:32.490Z,29.80
2023-01-26T05:08:59.787Z,31.10
2023-01-26T05:11:28.896Z,32.50
2023-01-26T05:14:10.421Z,33.80
2023-01-26T05:16:49.508Z,32.00
2023-01-26T05:19:45.889Z,32.90
2023-01-26T05:22:20.254Z,34.50
2023-01-26T05:25:11.687Z,32.30
2023-01-26T05:27:49.197Z,30.90
2023-01-26T05:30:16.809Z,32.00
2023-01-26T05:32:45.168Z,30.90
2023-01-26T05:35:12.864Z,34.00
2023-01-26T05:37:42.415Z,33.40
2023-01-26T05:40:11.241Z,33.30
2023-01-26T05:42:41.950Z,31.10
2023-01-26T05:45:23.163Z,33.70
2023-01-26T05:47:52.259Z,31.30
2023-01-26T05:50:20.734Z,31.70
2023-01-26T05:53:07.399Z,29.70
2023-01-26T05:55:36.138Z,29.60
2023-01-26T05:58:03.298Z,31.10
2023-01-26T06:00:31.391Z,30.80
2023-01-26T06:03:02.844Z,32.60
2023-01-26T06:05:33.097Z,33.20
2023-01-26T06:08:03.907Z,30.70
2023-01-26T06:10:39.727Z,31.00
2023-01-26T06:13:18.883Z,30.60
2023-01-26T06:15:52.003Z,32.10
2023-01-26T06:18:23.317Z,31.10
2023-01-26T06:20:53.654Z,29.30
2023-01-26T06:23:21.106Z,29.80
2023-01-26T06:25:48.090Z,29.90
2023-01-26T06:28:15.227Z,31.70
2023-01-26T06:30:42.151Z,30.50
2023-01-26T06:33:11.746Z,31.50
2023-01-26T06:35:40.171Z,35.50
2023-01-26T06:38:11.281Z,32.50
2023-01-26T06:40:38.495Z,32.60
2023-01-26T06:43:10.042Z,31.40
2023-01-26T06:45:37.416Z,30.40
2023-01-26T06:48:04.409Z,34.00
2023-01-26T06:50:32.862Z,34.60
2023-01-26T06:53:00.314Z,36.60
2023-01-26T06:55:53.690Z,39.40
2023-01-26T06:58:46.511Z,36.60
2023-01-26T07:01:26.049Z,32.60
2023-01-26T07:03:53.592Z,33.20
2023-01-26T07:06:20.486Z,33.70
2023-01-26T07:08:48.083Z,37.30
2023-01-26T07:11:16.683Z,34.80
2023-01-26T07:13:43.517Z,36.10
2023-01-26T07:16:12.124Z,34.80
2023-01-26T07:18:39.180Z,34.20
2023-01-26T07:21:09.168Z,36.00
2023-01-26T07:23:35.889Z,33.00
2023-01-26T07:26:02.755Z,32.70
2023-01-26T07:28:33.716Z,31.90
2023-01-26T07:31:00.736Z,34.20
2023-01-26T07:33:33.839Z,36.40
2023-01-26T07:36:00.984Z,37.10
2023-01-26T07:38:28.584Z,36.70
2023-01-26T07:40:55.500Z,35.90
2023-01-26T07:43:22.412Z,32.80
2023-01-26T07:45:52.970Z,31.30
2023-01-26T07:48:22.966Z,35.60
2023-01-26T07:50:50.015Z,36.20
2023-01-26T07:53:22.352Z,35.50
2023-01-26T07:55:50.344Z,35.30
2023-01-26T07:58:18.098Z,33.40
2023-01-26T08:00:47.683Z,34.20
2023-01-26T08:03:16.278Z,32.30
2023-01-26T08:05:43.156Z,31.80
2023-01-26T08:08:10.604Z,32.90
2023-01-26T08:10:38.291Z,28.20
2023-01-26T08:13:05.479Z,33.20
2023-01-26T08:15:33.789Z,33.10
2023-01-26T12:56:41.436Z,16.40
2023-01-26T12:59:39.750Z,16.00
2023-01-26T13:02:15.819Z,16.40
2023-01-26T13:04:44.230Z,17.00
2023-01-26T13:07:36.348Z,17.00
2023-01-26T13:13:00.183Z,16.30
2023-01-26T13:15:31.767Z,17.60
2023-01-26T13:18:00.705Z,18.80
2023-01-26T13:20:29.377Z,18.10
2023-01-26T13:22:57.565Z,19.50
2023-01-26T13:25:31.650Z,15.70
2023-01-26T13:28:03.684Z,14.60
2023-01-26T13:30:46.298Z,15.60
2023-01-26T13:35:45.450Z,12.30
2023-01-26T13:38:19.813Z,16.00
2023-01-26T13:40:50.645Z,14.90
2023-01-26T13:43:34.187Z,14.30
2023-01-26T13:46:12.624Z,15.00
2023-01-26T13:48:45.457Z,16.20
2023-01-26T13:51:18.755Z,15.40
2023-01-26T13:54:02.553Z,16.10
2023-01-26T13:56:33.721Z,18.10
2023-01-26T13:59:04.935Z,18.00
2023-01-26T14:01:33.285Z,18.30
2023-01-26T14:04:06.473Z,18.50
2023-01-26T14:06:36.205Z,18.80
2023-01-26T14:09:04.488Z,20.10
2023-01-26T14:11:33.195Z,21.10
2023-01-26T14:14:06.345Z,19.80
2023-01-26T14:19:20.978Z,20.70
2023-01-26T14:21:56.948Z,22.20
2023-01-26T14:24:48.846Z,20.20
2023-01-26T14:27:39.288Z,26.60
2023-01-26T14:30:36.092Z,27.90
2023-01-26T14:33:13.833Z,24.20
2023-01-26T14:36:02.160Z,22.40
2023-01-26T14:38:33.143Z,23.60
2023-01-26T14:41:01.380Z,24.00
2023-01-26T14:43:38.467Z,24.60
2023-01-26T14:46:15.420Z,26.00
2023-01-26T14:48:51.173Z,26.60
2023-01-26T14:51:22.949Z,26.30
2023-01-26T14:53:54.281Z,27.40
2023-01-26T14:56:27.529Z,26.10
2023-01-26T14:58:56.561Z,26.50
2023-01-26T15:01:26.315Z,26.60
2023-01-26T15:04:00.527Z,24.60
2023-01-26T15:09:30.814Z,28.20
2023-01-26T15:12:17.655Z,31.50
2023-01-26T15:14:45.742Z,40.00
2023-01-26T20:22:51.832Z,34.50
2023-01-26T20:25:19.476Z,33.90
2023-01-26T20:27:49.626Z,36.10
2023-01-26T20:30:19.139Z,35.30
2023-01-26T20:32:45.988Z,58.00
2023-01-26T20:35:13.247Z,53.40
2023-01-26T20:37:41.103Z,56.90
2023-01-26T20:40:08.855Z,38.70
2023-01-26T20:42:35.680Z,34.80
2023-01-26T20:45:02.503Z,32.90
2023-01-26T20:47:30.714Z,30.80
2023-01-26T20:50:01.644Z,29.80
2023-01-26T20:52:28.941Z,27.80
2023-01-26T20:54:56.205Z,25.50
2023-01-26T20:57:27.022Z,26.80
2023-01-26T20:59:54.798Z,26.60
2023-01-26T21:02:21.562Z,29.80
2023-01-26T21:04:48.623Z,29.40
2023-01-26T21:07:15.803Z,26.00
2023-01-26T21:09:46.049Z,25.80
2023-01-26T21:12:14.636Z,25.70
2023-01-26T21:14:41.676Z,24.80
2023-01-26T21:17:11.013Z,24.80
2023-01-26T21:19:39.245Z,23.30
2023-01-26T21:22:11.213Z,25.80
2023-01-26T21:24:38.225Z,24.00
2023-01-26T21:27:06.413Z,24.60
2023-01-26T21:29:33.210Z,23.30
2023-01-26T21:32:02.915Z,21.70
2023-01-26T21:34:30.991Z,22.40
2023-01-26T21:36:57.870Z,21.00
2023-01-26T21:39:25.543Z,24.20
2023-01-26T21:41:55.411Z,23.60
2023-01-26T21:44:32.355Z,24.10
2023-01-26T21:47:01.020Z,24.30
2023-01-26T21:49:28.742Z,22.40
2023-01-26T21:52:17.014Z,22.70
2023-01-26T21:54:44.300Z,24.20
2023-01-26T21:57:29.846Z,22.90
2023-01-26T21:59:57.317Z,21.20
2023-01-26T22:02:24.275Z,22.90
2023-01-26T22:04:52.239Z,21.30
2023-01-26T22:07:19.045Z,22.70
2023-01-26T22:09:46.840Z,23.00
2023-01-26T22:12:13.677Z,21.90
2023-01-26T22:14:40.801Z,24.10
2023-01-26T22:17:09.485Z,23.10
2023-01-26T22:19:36.917Z,23.40
2023-01-26T22:22:03.935Z,23.10
2023-01-26T22:24:31.563Z,20.20
2023-01-26T22:26:58.794Z,21.30
2023-01-26T22:29:25.673Z,20.60
2023-01-26T22:31:52.485Z,21.00
2023-01-26T22:34:19.416Z,21.70
2023-01-26T22:36:46.158Z,22.10
2023-01-26T22:39:12.880Z,22.50
2023-01-26T22:41:39.695Z,22.60
2023-01-26T22:44:06.570Z,22.10
2023-01-26T22:46:40.221Z,20.30
2023-01-26T22:49:06.931Z,21.80
